Time;durP1;ratioP1;P1;durP2;ratioP2;P2;SDS_P1;SDS_P2;PMS_P1;PMS_P2;Temp;Humidity;BMP_temperature;BMP_pressure;BME280_temperature;BME280_humidity;BME280_pressure;Samples;Min_cycle;Max_cycle;Signal;HPM_P1;HPM_P2
2024/01/19 00:02:23;;;;;;;83.73;42.97;;;1.50;63.10;;;;;;5003077;28;20677;-73
2024/01/19 00:04:53;;;;;;;80.33;44.47;;;1.40;63.00;;;;;;4993097;28;20648;-74
2024/01/19 00:07:22;;;;;;;75.30;44.00;;;1.40;63.00;;;;;;4990543;28;20870;-73
2024/01/19 00:09:50;;;;;;;81.53;43.23;;;1.40;75.70;;;;;;4993821;28;20271;-74
2024/01/19 00:12:21;;;;;;;80.77;44.63;;;1.40;62.80;;;;;;4987590;28;20216;-73
2024/01/19 00:14:50;;;;;;;82.87;44.10;;;1.30;63.20;;;;;;4970752;28;20274;-73
2024/01/19 00:17:19;;;;;;;79.17;43.57;;;1.30;63.40;;;;;;4988418;28;20236;-74
2024/01/19 00:19:49;;;;;;;77.00;43.47;;;1.30;63.90;;;;;;4988143;28;20243;-75
2024/01/19 00:22:20;;;;;;;80.10;41.40;;;1.40;63.80;;;;;;4979698;28;20248;-72
2024/01/19 00:24:49;;;;;;;80.03;43.33;;;1.40;63.00;;;;;;4997682;28;20288;-74
2024/01/19 00:27:17;;;;;;;81.00;43.07;;;1.30;63.00;;;;;;4973626;28;20276;-73
2024/01/19 00:29:47;;;;;;;84.37;42.17;;;1.20;63.20;;;;;;4975948;28;20305;-74
2024/01/19 00:32:16;;;;;;;77.37;42.60;;;1.20;64.30;;;;;;4992974;28;20267;-76
2024/01/19 00:34:46;;;;;;;80.77;42.93;;;1.10;63.60;;;;;;4998799;28;20220;-75
2024/01/19 00:37:18;;;;;;;76.00;42.37;;;1.10;63.40;;;;;;4986547;28;20300;-74
2024/01/19 00:39:48;;;;;;;78.53;42.53;;;1.20;63.40;;;;;;5007605;28;20236;-75
2024/01/19 00:42:17;;;;;;;83.20;41.37;;;1.10;63.50;;;;;;5005247;28;20227;-75
2024/01/19 00:44:46;;;;;;;75.07;41.43;;;1.20;63.00;;;;;;4978343;28;20605;-75
2024/01/19 00:47:16;;;;;;;74.43;40.83;;;1.20;63.10;;;;;;4995039;28;20239;-75
2024/01/19 00:49:45;;;;;;;72.43;39.30;;;1.00;64.00;;;;;;4998157;28;20230;-75
2024/01/19 00:52:13;;;;;;;70.30;38.97;;;0.90;64.40;;;;;;4994497;28;20228;-75
2024/01/19 00:54:48;;;;;;;73.23;38.70;;;0.90;64.80;;;;;;5003873;28;20338;-76
2024/01/19 00:57:17;;;;;;;69.23;37.27;;;1.00;63.60;;;;;;5002324;28;20234;-75
2024/01/19 00:59:48;;;;;;;65.63;36.20;;;1.10;64.50;;;;;;4971815;28;20249;-75
2024/01/19 01:02:20;;;;;;;68.37;33.77;;;1.00;63.50;;;;;;4979666;28;20230;-75
2024/01/19 01:04:48;;;;;;;55.33;33.17;;;1.00;63.60;;;;;;5008692;28;20243;-75
2024/01/19 01:07:18;;;;;;;64.27;35.37;;;0.80;63.70;;;;;;4994634;28;20737;-74
2024/01/19 01:09:48;;;;;;;61.10;34.90;;;0.80;64.10;;;;;;4959164;28;20244;-75
2024/01/19 01:12:19;;;;;;;65.37;34.70;;;0.90;63.60;;;;;;4998678;28;20318;-78
2024/01/19 01:14:49;;;;;;;67.03;35.67;;;0.80;65.30;;;;;;5007171;28;20970;-80
2024/01/19 01:17:18;;;;;;;60.40;33.33;;;0.80;63.70;;;;;;4999028;28;20228;-79
2024/01/19 01:19:47;;;;;;;62.13;33.43;;;0.80;63.80;;;;;;5005623;28;20224;-80
2024/01/19 01:22:17;;;;;;;59.73;31.67;;;0.70;63.40;;;;;;4989173;28;20233;-80
2024/01/19 01:24:48;;;;;;;60.17;32.60;;;0.70;63.40;;;;;;5015732;28;20253;-79
2024/01/19 01:27:17;;;;;;;56.53;32.07;;;0.70;62.90;;;;;;5006642;28;20261;-78
2024/01/19 01:29:45;;;;;;;57.77;32.67;;;0.80;63.50;;;;;;5000095;28;20306;-79
2024/01/19 01:32:15;;;;;;;55.07;32.10;;;0.80;63.70;;;;;;5011624;28;20242;-80
2024/01/19 01:34:44;;;;;;;59.70;33.63;;;0.80;76.70;;;;;;5019844;28;20226;-80
2024/01/19 01:37:13;;;;;;;55.47;32.07;;;0.80;62.90;;;;;;5004688;28;20315;-79
2024/01/19 01:39:42;;;;;;;61.73;32.23;;;0.90;63.70;;;;;;5004148;28;20264;-79
2024/01/19 01:42:12;;;;;;;59.53;32.77;;;0.80;63.50;;;;;;5011643;28;20232;-79
2024/01/19 01:44:43;;;;;;;60.07;32.23;;;1.00;63.70;;;;;;5013584;28;20223;-79
2024/01/19 01:47:12;;;;;;;61.50;32.43;;;1.10;63.10;;;;;;5008518;28;20224;-79
2024/01/19 01:49:43;;;;;;;59.20;32.73;;;1.00;62.50;;;;;;5013319;28;20278;-79
2024/01/19 01:52:12;;;;;;;62.43;33.13;;;1.10;62.70;;;;;;5030243;28;20222;-78
2024/01/19 01:54:41;;;;;;;62.83;33.97;;;1.10;62.90;;;;;;5016966;28;20232;-79
2024/01/19 01:57:19;;;;;;;60.67;33.67;;;1.10;62.40;;;;;;5008718;28;20245;-78
2024/01/19 01:59:48;;;;;;;60.07;31.07;;;1.00;62.90;;;;;;5010764;28;20317;-79
2024/01/19 02:02:17;;;;;;;54.73;30.13;;;1.00;63.00;;;;;;5043354;28;20232;-80
2024/01/19 02:04:46;;;;;;;54.87;29.60;;;1.00;63.10;;;;;;5015533;28;20224;-80
2024/01/19 02:07:15;;;;;;;47.27;25.80;;;0.90;63.00;;;;;;5021802;28;20216;-79
2024/01/19 02:09:45;;;;;;;50.43;25.43;;;0.90;62.30;;;;;;4995553;28;20322;-80
2024/01/19 02:12:16;;;;;;;44.40;25.43;;;0.80;62.80;;;;;;5017226;28;20269;-79
2024/01/19 02:14:45;;;;;;;45.47;24.57;;;0.80;62.70;;;;;;5000516;28;20303;-79
2024/01/19 02:17:15;;;;;;;43.53;24.03;;;0.70;62.80;;;;;;5018397;28;20242;-79
2024/01/19 02:19:45;;;;;;;38.67;22.07;;;0.80;62.40;;;;;;5018346;28;20307;-79
2024/01/19 02:22:17;;;;;;;43.00;22.57;;;0.70;62.80;;;;;;5020305;28;20232;-74
2024/01/19 02:24:48;;;;;;;42.77;22.87;;;0.80;62.50;;;;;;5004976;28;20771;-73
2024/01/19 02:27:18;;;;;;;45.27;23.13;;;0.80;63.30;;;;;;5005005;28;20318;-74
2024/01/19 02:29:51;;;;;;;38.80;21.17;;;0.60;62.50;;;;;;5006485;28;20224;-73
2024/01/19 02:32:20;;;;;;;40.80;21.63;;;0.40;62.60;;;;;;5022709;28;20306;-74
2024/01/19 02:34:50;;;;;;;42.17;21.77;;;0.40;62.90;;;;;;5018579;28;20219;-74
2024/01/19 02:37:20;;;;;;;39.53;21.70;;;0.40;63.30;;;;;;5027823;28;20235;-74
2024/01/19 02:39:50;;;;;;;41.87;22.10;;;0.40;62.90;;;;;;5005298;28;20632;-75
2024/01/19 02:42:19;;;;;;;45.60;23.40;;;0.20;62.80;;;;;;5018731;28;20251;-74
2024/01/19 02:44:49;;;;;;;43.43;22.80;;;0.30;65.10;;;;;;5007088;28;20237;-74
2024/01/19 02:47:18;;;;;;;43.10;22.23;;;0.30;63.30;;;;;;5006832;28;20231;-74
2024/01/19 02:49:52;;;;;;;40.70;22.03;;;0.30;64.50;;;;;;5039242;28;20778;-75
2024/01/19 02:52:22;;;;;;;49.80;24.43;;;0.30;63.80;;;;;;5033631;28;20320;-74
2024/01/19 02:54:52;;;;;;;44.97;24.10;;;0.40;64.00;;;;;;5021887;28;20225;-74
2024/01/19 02:57:21;;;;;;;41.67;23.53;;;0.40;63.90;;;;;;5005469;28;20311;-75
2024/01/19 02:59:49;;;;;;;45.13;24.87;;;0.40;64.60;;;;;;5031461;28;20229;-75
2024/01/19 03:02:18;;;;;;;44.27;23.17;;;0.40;63.50;;;;;;5021904;28;20257;-74
2024/01/19 03:04:48;;;;;;;43.90;23.27;;;0.30;63.10;;;;;;5006890;28;20221;-75
2024/01/19 03:07:18;;;;;;;41.03;22.63;;;0.20;63.50;;;;;;5024499;28;20233;-75
2024/01/19 03:09:49;;;;;;;37.50;20.60;;;0.30;63.40;;;;;;5024674;28;20713;-74
2024/01/19 03:12:20;;;;;;;40.43;20.23;;;0.10;63.60;;;;;;5025717;28;20334;-74
2024/01/19 03:14:49;;;;;;;35.10;19.27;;;0.00;64.70;;;;;;5016571;28;20233;-75
2024/01/19 03:17:19;;;;;;;38.80;20.03;;;0.00;63.50;;;;;;5000257;28;20228;-74
2024/01/19 03:19:48;;;;;;;37.10;19.53;;;0.10;64.00;;;;;;5030691;28;20325;-74
2024/01/19 03:22:17;;;;;;;37.13;20.07;;;0.20;64.00;;;;;;5006039;28;20251;-74
2024/01/19 03:24:46;;;;;;;37.53;19.83;;;0.20;63.30;;;;;;5005570;28;20733;-73
2024/01/19 03:27:15;;;;;;;37.23;19.90;;;0.20;62.70;;;;;;5006997;28;20913;-75
2024/01/19 03:29:47;;;;;;;37.27;20.00;;;0.30;65.50;;;;;;5031876;28;20226;-75
2024/01/19 03:32:17;;;;;;;41.07;21.00;;;0.20;63.10;;;;;;5025038;28;20366;-73
2024/01/19 03:34:47;;;;;;;39.10;20.93;;;0.20;64.00;;;;;;5001101;28;20267;-74
2024/01/19 03:37:15;;;;;;;38.43;20.63;;;0.20;64.10;;;;;;5012530;28;20241;-74
2024/01/19 03:39:45;;;;;;;41.43;21.80;;;0.30;64.60;;;;;;4991827;28;20305;-74
2024/01/19 03:42:15;;;;;;;38.90;20.90;;;0.10;64.10;;;;;;5005664;28;20292;-74
2024/01/19 03:44:44;;;;;;;49.97;22.47;;;0.10;65.20;;;;;;5014474;28;20227;-75
2024/01/19 03:47:14;;;;;;;38.93;21.60;;;0.00;65.30;;;;;;5026038;28;20231;-73
2024/01/19 03:49:43;;;;;;;42.80;21.73;;;0.00;64.70;;;;;;5020132;28;20231;-73
2024/01/19 03:52:12;;;;;;;44.53;22.20;;;-0.10;65.60;;;;;;5030573;28;20776;-74
2024/01/19 03:54:41;;;;;;;43.57;22.67;;;-0.10;64.30;;;;;;5029309;28;20218;-75
2024/01/19 03:57:10;;;;;;;47.63;23.03;;;-0.10;64.60;;;;;;4996192;28;20260;-74
2024/01/19 03:59:39;;;;;;;48.33;23.50;;;-0.10;65.10;;;;;;5014478;28;20254;-74
2024/01/19 04:02:09;;;;;;;60.30;28.10;;;-0.10;65.30;;;;;;4994637;28;20229;-74
2024/01/19 04:04:38;;;;;;;58.30;28.33;;;-0.20;66.10;;;;;;4969742;28;20921;-74
2024/01/19 04:07:07;;;;;;;57.00;26.83;;;-0.30;65.60;;;;;;4995040;28;20861;-74
2024/01/19 04:09:37;;;;;;;62.40;28.37;;;-0.20;65.10;;;;;;5009342;28;20218;-76
2024/01/19 04:12:14;;;;;;;51.37;24.83;;;-0.20;66.00;;;;;;4994160;28;20308;-74
2024/01/19 04:14:44;;;;;;;47.87;23.37;;;-0.30;65.30;;;;;;5011577;28;20229;-75
2024/01/19 04:17:15;;;;;;;51.93;21.93;;;-0.40;64.60;;;;;;5020762;28;20241;-74
2024/01/19 04:19:43;;;;;;;48.23;22.00;;;-0.50;65.00;;;;;;5001433;28;20304;-74
2024/01/19 04:22:14;;;;;;;40.17;20.40;;;-0.60;65.10;;;;;;4993857;28;20272;-74
2024/01/19 04:24:43;;;;;;;41.43;20.93;;;-0.60;65.20;;;;;;5017897;28;20224;-74
2024/01/19 04:27:12;;;;;;;39.77;20.97;;;-0.50;66.30;;;;;;5008764;28;20282;-74
2024/01/19 04:29:41;;;;;;;40.53;19.57;;;-0.30;64.30;;;;;;5012180;28;20233;-75
2024/01/19 04:32:10;;;;;;;40.70;20.40;;;-0.30;64.90;;;;;;5009748;28;20372;-74
2024/01/19 04:34:40;;;;;;;38.07;18.97;;;-0.40;64.80;;;;;;5002119;28;20258;-74
2024/01/19 04:37:10;;;;;;;37.20;19.47;;;-0.30;64.70;;;;;;4996322;28;20236;-74
2024/01/19 04:39:39;;;;;;;37.03;19.17;;;-0.40;64.70;;;;;;4994178;28;20218;-75
2024/01/19 04:42:11;;;;;;;37.67;19.57;;;-0.30;64.40;;;;;;4995006;28;20558;-81
2024/01/19 04:44:39;;;;;;;33.87;18.77;;;-0.40;64.40;;;;;;5015925;28;20559;-80
2024/01/19 04:47:08;;;;;;;31.30;17.53;;;-0.50;65.60;;;;;;4994174;28;20237;-81
2024/01/19 04:49:36;;;;;;;33.00;17.40;;;-0.30;64.70;;;;;;5032706;28;20726;-81
2024/01/19 04:52:07;;;;;;;33.33;16.60;;;-0.40;65.60;;;;;;5023211;28;20636;-81
2024/01/19 04:54:38;;;;;;;31.60;16.93;;;-0.50;66.10;;;;;;5001577;28;20724;-80
2024/01/19 04:57:07;;;;;;;30.90;16.17;;;-0.50;65.70;;;;;;5008566;28;20360;-81
2024/01/19 04:59:37;;;;;;;29.20;16.63;;;-0.40;65.90;;;;;;4998475;28;20240;-81
2024/01/19 05:02:05;;;;;;;29.73;15.87;;;-0.40;65.30;;;;;;5013408;28;20225;-81
2024/01/19 05:04:34;;;;;;;31.60;15.90;;;-0.20;65.00;;;;;;5008986;28;20232;-79
2024/01/19 05:07:03;;;;;;;28.90;16.40;;;-0.20;63.70;;;;;;5000434;28;20349;-79
2024/01/19 05:09:33;;;;;;;30.03;16.03;;;-0.30;65.10;;;;;;5038396;28;20220;-79
2024/01/19 05:12:02;;;;;;;29.83;15.70;;;-0.30;65.30;;;;;;4990214;28;20240;-80
2024/01/19 05:14:31;;;;;;;30.00;15.80;;;-0.30;65.40;;;;;;5040567;28;20228;-80
2024/01/19 05:17:00;;;;;;;28.10;14.67;;;-0.50;65.70;;;;;;5018190;28;20257;-80
2024/01/19 05:19:29;;;;;;;26.93;14.17;;;-0.30;64.20;;;;;;5017596;28;20233;-80
2024/01/19 05:21:58;;;;;;;25.93;13.90;;;-0.50;65.20;;;;;;5012830;28;20236;-79
2024/01/19 05:24:28;;;;;;;31.07;15.17;;;-0.50;65.60;;;;;;5021169;28;20237;-79
2024/01/19 05:26:59;;;;;;;34.40;15.07;;;-0.50;65.50;;;;;;5007913;28;20229;-79
2024/01/19 05:29:29;;;;;;;29.77;14.97;;;-0.50;64.60;;;;;;5004702;28;20313;-80
2024/01/19 05:31:58;;;;;;;29.63;15.23;;;-0.50;65.60;;;;;;5005542;28;20231;-79
2024/01/19 05:34:27;;;;;;;35.97;16.87;;;-0.50;65.20;;;;;;5040581;28;20271;-78
2024/01/19 05:36:56;;;;;;;33.20;16.63;;;-0.40;65.20;;;;;;5012990;28;20228;-79
2024/01/19 05:39:25;;;;;;;35.00;16.60;;;-0.30;64.30;;;;;;4982508;28;20252;-79
2024/01/19 05:41:54;;;;;;;39.00;17.10;;;-0.50;64.60;;;;;;4998665;28;20290;-77
2024/01/19 05:44:24;;;;;;;41.70;18.90;;;-0.30;64.10;;;;;;5020624;28;20589;-78
2024/01/19 05:46:53;;;;;;;34.57;17.77;;;-0.40;64.50;;;;;;5013961;28;20222;-77
2024/01/19 05:49:22;;;;;;;37.77;19.17;;;-0.30;64.20;;;;;;5006723;28;20233;-77
2024/01/19 05:51:51;;;;;;;38.27;18.17;;;-0.40;65.60;;;;;;5013746;28;20680;-74
2024/01/19 05:54:20;;;;;;;42.03;19.80;;;-0.30;64.90;;;;;;5019678;28;20217;-75
2024/01/19 05:56:50;;;;;;;33.50;17.60;;;-0.20;66.10;;;;;;5006219;28;20225;-74
2024/01/19 05:59:21;;;;;;;41.37;19.17;;;-0.20;63.90;;;;;;5001056;28;20280;-73
2024/01/19 06:01:52;;;;;;;38.43;17.73;;;-0.10;64.10;;;;;;5011007;28;20252;-74
2024/01/19 06:04:23;;;;;;;31.37;16.30;;;-0.30;63.80;;;;;;5021586;28;20222;-74
2024/01/19 06:06:52;;;;;;;29.57;14.90;;;-0.20;63.40;;;;;;5033762;28;20317;-74
2024/01/19 06:09:21;;;;;;;31.00;15.77;;;-0.30;62.60;;;;;;5035887;28;20225;-73
2024/01/19 06:11:49;;;;;;;28.90;15.30;;;-0.20;63.30;;;;;;5016227;28;20217;-74
2024/01/19 06:14:18;;;;;;;28.33;14.47;;;-0.20;63.60;;;;;;5022350;28;20221;-74
2024/01/19 06:16:47;;;;;;;28.93;15.23;;;-0.30;63.60;;;;;;5035851;28;20684;-75
2024/01/19 06:19:18;;;;;;;26.07;13.87;;;-0.20;63.20;;;;;;4999704;28;20221;-77
2024/01/19 06:21:48;;;;;;;32.53;16.13;;;-0.20;64.70;;;;;;5012030;28;20266;-74
2024/01/19 06:24:17;;;;;;;31.63;17.43;;;-0.10;65.10;;;;;;5017077;28;20221;-75
2024/01/19 06:26:45;;;;;;;31.30;15.80;;;-0.10;64.60;;;;;;5011439;28;20228;-74
2024/01/19 06:29:14;;;;;;;28.40;14.40;;;-0.30;62.50;;;;;;5007332;28;20301;-74
2024/01/19 06:31:44;;;;;;;25.80;15.23;;;-0.40;64.90;;;;;;5007409;28;20304;-74
2024/01/19 06:34:14;;;;;;;30.07;14.80;;;-0.30;64.50;;;;;;5022916;28;20248;-74
2024/01/19 06:36:46;;;;;;;27.83;14.70;;;-0.40;64.60;;;;;;5038027;28;20233;-74
2024/01/19 06:39:15;;;;;;;26.37;14.50;;;-0.50;64.20;;;;;;5044636;28;20233;-74
2024/01/19 06:41:44;;;;;;;26.87;14.93;;;-0.50;64.40;;;;;;5021011;28;20221;-73
2024/01/19 06:44:15;;;;;;;28.03;14.73;;;-0.40;64.80;;;;;;5003625;28;20236;-73
2024/01/19 06:46:47;;;;;;;29.47;14.97;;;-0.30;64.10;;;;;;5022452;28;20228;-72
2024/01/19 06:49:17;;;;;;;29.30;14.57;;;-0.20;65.00;;;;;;5015313;28;20232;-72
2024/01/19 06:51:48;;;;;;;27.90;15.40;;;-0.10;65.40;;;;;;4999715;28;20227;-73
2024/01/19 06:54:19;;;;;;;24.27;14.23;;;-0.30;64.50;;;;;;5001663;28;20232;-73
2024/01/19 06:56:47;;;;;;;29.70;14.57;;;-0.30;63.90;;;;;;5024421;28;20324;-75
2024/01/19 06:59:16;;;;;;;27.47;14.50;;;-0.40;64.70;;;;;;5021540;28;20229;-74
2024/01/19 07:01:46;;;;;;;28.87;14.87;;;-0.40;66.90;;;;;;5004323;28;20227;-76
2024/01/19 07:04:15;;;;;;;27.27;15.17;;;-0.20;59.40;;;;;;4993936;28;20232;-77
2024/01/19 07:06:44;;;;;;;26.53;14.80;;;-0.20;65.80;;;;;;5000991;28;20226;-76
2024/01/19 07:09:17;;;;;;;27.27;14.90;;;-0.20;64.00;;;;;;5017645;28;20255;-76
2024/01/19 07:11:46;;;;;;;25.13;15.10;;;-0.40;65.70;;;;;;5016115;28;20304;-78
2024/01/19 07:14:15;;;;;;;26.07;15.57;;;-0.30;65.50;;;;;;5001917;28;20322;-78
2024/01/19 07:16:44;;;;;;;29.43;14.23;;;-0.40;65.90;;;;;;5003217;28;20235;-78
2024/01/19 07:19:13;;;;;;;23.50;14.10;;;-0.50;67.00;;;;;;5005536;28;20241;-82
2024/01/19 07:21:44;;;;;;;24.63;14.43;;;-0.60;67.50;;;;;;5032189;28;20233;-78
2024/01/19 07:24:13;;;;;;;25.53;14.67;;;-0.80;68.20;;;;;;5018697;28;20953;-81
2024/01/19 07:26:44;;;;;;;24.33;13.53;;;-0.80;68.50;;;;;;5017766;28;20221;-86
2024/01/19 07:29:15;;;;;;;23.90;14.30;;;-0.80;68.50;;;;;;4999209;28;20225;-78
2024/01/19 07:31:48;;;;;;;28.17;13.37;;;-0.70;67.70;;;;;;5002719;28;20227;-79
2024/01/19 07:34:19;;;;;;;24.87;13.83;;;-0.90;68.30;;;;;;5003502;28;20360;-78
2024/01/19 07:36:48;;;;;;;27.03;14.00;;;-0.70;68.30;;;;;;4998650;28;20224;-77
2024/01/19 07:39:18;;;;;;;25.40;13.20;;;-0.70;69.10;;;;;;5018049;28;20241;-77
2024/01/19 07:41:49;;;;;;;27.83;13.97;;;-0.60;69.20;;;;;;5026747;28;20224;-78
2024/01/19 07:44:19;;;;;;;24.20;14.40;;;-0.80;69.00;;;;;;5013344;28;20308;-77
2024/01/19 07:46:48;;;;;;;24.50;13.60;;;-0.60;68.50;;;;;;5001338;28;20216;-79
2024/01/19 07:49:21;;;;;;;25.03;13.77;;;-0.60;68.70;;;;;;4998369;28;20220;-80
2024/01/19 07:51:50;;;;;;;26.37;14.13;;;-0.60;68.60;;;;;;5016942;28;20232;-81
2024/01/19 07:54:20;;;;;;;31.90;16.20;;;-0.50;68.70;;;;;;5017040;28;20312;-80
2024/01/19 07:56:52;;;;;;;30.17;15.40;;;-0.50;68.80;;;;;;5037799;28;20217;-79
2024/01/19 07:59:22;;;;;;;25.80;14.00;;;-0.40;68.20;;;;;;5011485;28;20712;-78
2024/01/19 08:01:51;;;;;;;27.57;15.00;;;-0.50;69.00;;;;;;5004777;28;20221;-78
2024/01/19 08:04:22;;;;;;;25.70;14.60;;;-0.30;68.60;;;;;;5005814;28;20232;-78
2024/01/19 08:06:51;;;;;;;29.77;15.43;;;-0.40;68.60;;;;;;5029898;28;20245;-78
2024/01/19 08:09:21;;;;;;;24.13;14.63;;;-0.50;68.50;;;;;;5015565;28;20225;-78
2024/01/19 08:11:54;;;;;;;28.27;15.70;;;-0.50;69.90;;;;;;5020347;28;20221;-78
2024/01/19 08:14:24;;;;;;;37.13;19.07;;;-0.30;69.40;;;;;;5004411;28;20306;-77
2024/01/19 08:16:54;;;;;;;30.10;15.27;;;-0.30;69.00;;;;;;5034415;28;20234;-78
2024/01/19 08:19:23;;;;;;;31.00;15.63;;;-0.20;68.30;;;;;;5018582;28;20230;-77
2024/01/19 08:21:52;;;;;;;27.77;15.67;;;-0.10;68.80;;;;;;5001794;28;20324;-78
2024/01/19 08:24:21;;;;;;;31.67;16.90;;;0.00;68.20;;;;;;5021061;28;20236;-83
2024/01/19 08:26:52;;;;;;;27.90;16.63;;;-0.10;68.00;;;;;;5020254;28;20352;-78
2024/01/19 08:29:22;;;;;;;35.13;17.47;;;0.00;81.20;;;;;;4996662;28;20308;-79
2024/01/19 08:31:52;;;;;;;36.20;16.53;;;0.10;67.90;;;;;;5017626;28;20359;-80
2024/01/19 08:34:23;;;;;;;30.77;16.17;;;0.00;67.50;;;;;;5011220;28;20232;-80
2024/01/19 08:36:53;;;;;;;30.40;17.20;;;-0.10;68.60;;;;;;5034940;28;20224;-80
2024/01/19 08:39:21;;;;;;;31.90;16.63;;;-0.10;69.10;;;;;;5012692;28;20235;-80
2024/01/19 08:41:52;;;;;;;32.07;17.07;;;0.00;69.30;;;;;;5009729;28;20608;-80
2024/01/19 08:44:23;;;;;;;31.90;16.90;;;-0.30;69.60;;;;;;5024424;28;20226;-80
2024/01/19 08:46:52;;;;;;;31.27;17.10;;;-0.20;69.20;;;;;;5006326;28;20218;-79
2024/01/19 08:49:24;;;;;;;31.20;16.77;;;-0.20;69.70;;;;;;5008102;28;20893;-80
2024/01/19 08:51:53;;;;;;;28.50;16.27;;;-0.30;69.60;;;;;;5012880;28;20226;-80
2024/01/19 08:54:22;;;;;;;31.53;17.13;;;-0.10;69.10;;;;;;5015796;28;20229;-79
2024/01/19 08:56:55;;;;;;;33.37;18.37;;;-0.20;69.30;;;;;;5018855;28;20226;-79
2024/01/19 08:59:27;;;;;;;32.87;17.17;;;-0.30;69.10;;;;;;5016338;28;20232;-80
2024/01/19 09:01:59;;;;;;;37.10;18.43;;;-0.40;70.30;;;;;;5002811;28;20247;-80
2024/01/19 09:04:28;;;;;;;34.13;18.20;;;-0.30;70.40;;;;;;4990319;28;20714;-79
2024/01/19 09:06:57;;;;;;;30.97;17.57;;;-0.20;70.10;;;;;;5002762;28;20232;-79
2024/01/19 09:09:27;;;;;;;33.87;17.63;;;-0.40;69.80;;;;;;5009408;28;20559;-79
2024/01/19 09:12:00;;;;;;;32.00;17.00;;;-0.40;76.00;;;;;;5031197;28;20315;-79
2024/01/19 09:14:32;;;;;;;34.17;17.93;;;-0.40;77.30;;;;;;5016458;28;20232;-80
2024/01/19 09:17:02;;;;;;;32.33;17.67;;;-0.40;90.40;;;;;;4994211;28;20237;-79
2024/01/19 09:19:33;;;;;;;36.40;17.87;;;-0.40;77.60;;;;;;5007332;28;20220;-79
2024/01/19 09:22:06;;;;;;;33.07;18.00;;;-0.40;77.70;;;;;;5020620;28;20249;-76
2024/01/19 09:24:35;;;;;;;35.17;17.97;;;-0.30;77.40;;;;;;4997422;28;20363;-77
2024/01/19 09:27:06;;;;;;;39.20;18.53;;;-0.30;76.50;;;;;;5002141;28;20383;-76
2024/01/19 09:29:35;;;;;;;33.93;18.00;;;-0.20;76.90;;;;;;5015498;28;20217;-77
2024/01/19 09:32:07;;;;;;;38.40;18.37;;;-0.20;77.00;;;;;;5018724;28;20566;-76
2024/01/19 09:34:36;;;;;;;34.13;18.43;;;-0.10;76.20;;;;;;5009503;28;20212;-77
2024/01/19 09:37:05;;;;;;;33.17;18.63;;;0.00;76.00;;;;;;5006092;28;20229;-77
2024/01/19 09:39:36;;;;;;;33.73;17.37;;;0.10;75.50;;;;;;5020840;28;20221;-76
2024/01/19 09:42:16;;;;;;;35.47;19.07;;;0.10;88.90;;;;;;5021709;28;20442;-76
2024/01/19 09:45:00;;;;;;;32.43;17.60;;;0.10;76.10;;;;;;4998567;28;20225;-76
2024/01/19 09:47:42;;;;;;;36.50;18.07;;;-0.10;76.20;;;;;;5014393;28;20626;-76
2024/01/19 09:50:17;;;;;;;32.60;17.87;;;0.10;76.50;;;;;;5015141;28;20223;-76
2024/01/19 09:52:52;;;;;;;32.20;18.20;;;0.10;76.10;;;;;;5020555;28;20831;-76
2024/01/19 09:55:27;;;;;;;32.97;18.50;;;0.20;76.10;;;;;;5021592;28;20478;-76
2024/01/19 09:57:58;;;;;;;33.47;18.83;;;0.20;75.50;;;;;;5045032;28;20225;-75
2024/01/19 10:00:28;;;;;;;36.47;18.83;;;0.10;76.40;;;;;;5026355;28;20220;-76
2024/01/19 10:02:57;;;;;;;34.80;19.40;;;0.30;76.30;;;;;;5007499;28;20232;-76
2024/01/19 10:05:30;;;;;;;32.27;17.27;;;0.20;76.90;;;;;;5021389;28;20226;-76
2024/01/19 10:08:02;;;;;;;34.83;18.10;;;0.30;76.00;;;;;;5040672;28;20837;-76
2024/01/19 10:10:34;;;;;;;39.20;19.40;;;0.40;76.20;;;;;;5024477;28;20225;-76
2024/01/19 10:13:05;;;;;;;33.77;18.27;;;0.40;76.30;;;;;;5004772;28;20251;-76
2024/01/19 10:15:35;;;;;;;34.70;18.07;;;0.40;76.20;;;;;;5030423;28;20229;-75
2024/01/19 10:18:05;;;;;;;36.93;18.30;;;0.60;74.90;;;;;;5019261;28;20303;-75
2024/01/19 10:20:39;;;;;;;30.97;18.07;;;0.60;75.20;;;;;;5023900;28;20308;-78
2024/01/19 10:23:21;;;;;;;35.73;18.40;;;0.60;75.60;;;;;;5038534;28;20228;-81
2024/01/19 10:25:51;;;;;;;35.67;19.00;;;0.60;75.50;;;;;;5043626;28;20372;-81
2024/01/19 10:28:33;;;;;;;33.33;18.90;;;0.50;75.90;;;;;;5048762;28;20231;-81
2024/01/19 10:31:22;;;;;;;35.53;18.40;;;0.60;76.00;;;;;;4983764;28;20230;-81
2024/01/19 10:33:53;;;;;;;32.43;17.23;;;0.70;75.80;;;;;;5004602;28;20224;-79
2024/01/19 10:36:23;;;;;;;32.87;17.03;;;0.70;75.80;;;;;;4999698;28;20882;-79
2024/01/19 10:38:55;;;;;;;34.07;17.23;;;0.80;75.30;;;;;;5027432;28;20225;-80
2024/01/19 10:41:26;;;;;;;36.40;18.07;;;0.90;76.70;;;;;;5036136;28;20248;-81
2024/01/19 10:44:11;;;;;;;32.33;17.17;;;1.00;76.00;;;;;;4992803;28;20233;-76
2024/01/19 10:46:40;;;;;;;32.77;17.57;;;0.90;75.80;;;;;;5002026;28;20567;-76
2024/01/19 10:49:10;;;;;;;36.03;18.07;;;0.80;75.80;;;;;;5014479;28;20313;-76
2024/01/19 10:51:40;;;;;;;33.23;18.47;;;0.90;76.10;;;;;;5025478;28;20287;-76
2024/01/19 10:54:15;;;;;;;37.40;19.77;;;1.00;76.20;;;;;;5004471;28;20330;-76
2024/01/19 10:56:44;;;;;;;36.00;19.67;;;1.20;75.10;;;;;;5025782;28;20741;-77
2024/01/19 10:59:17;;;;;;;38.23;20.40;;;1.20;73.60;;;;;;5041553;28;20263;-77
2024/01/19 11:01:59;;;;;;;39.27;18.90;;;1.20;75.90;;;;;;5015690;28;20266;-76
2024/01/19 11:04:28;;;;;;;31.77;18.63;;;1.00;75.00;;;;;;5001225;28;20699;-77
2024/01/19 11:06:57;;;;;;;39.00;19.90;;;1.10;76.40;;;;;;4991794;28;20228;-77
2024/01/19 11:09:27;;;;;;;38.20;18.70;;;1.30;75.10;;;;;;5021117;28;20244;-77
2024/01/19 11:11:57;;;;;;;46.27;17.80;;;1.40;75.00;;;;;;5013766;28;20504;-76
2024/01/19 11:14:34;;;;;;;36.90;19.67;;;1.50;75.80;;;;;;5017151;28;20221;-77
2024/01/19 11:17:03;;;;;;;38.07;19.00;;;1.60;74.00;;;;;;5043725;28;20246;-77
2024/01/19 11:19:33;;;;;;;37.20;19.73;;;1.70;74.80;;;;;;5004512;28;20308;-77
2024/01/19 11:22:05;;;;;;;37.27;18.40;;;1.80;75.20;;;;;;5035225;28;21123;-77
2024/01/19 11:24:38;;;;;;;36.30;17.83;;;1.90;74.00;;;;;;5018490;28;20225;-76
2024/01/19 11:27:18;;;;;;;31.77;17.43;;;2.10;73.80;;;;;;5018467;28;20711;-75
2024/01/19 11:29:53;;;;;;;32.77;18.50;;;2.10;85.70;;;;;;5009618;28;20225;-78
2024/01/19 11:32:22;;;;;;;37.67;20.40;;;2.10;72.70;;;;;;4987722;28;20230;-76
2024/01/19 11:34:51;;;;;;;33.43;17.17;;;2.20;73.10;;;;;;5015414;28;20746;-78
2024/01/19 11:37:45;;;;;;;34.17;16.37;;;2.30;73.70;;;;;;5006605;28;20257;-77
2024/01/19 11:40:53;;;;;;;32.17;16.37;;;2.30;73.50;;;;;;4994035;28;20303;-77
2024/01/19 11:43:45;;;;;;;30.23;15.30;;;2.40;72.20;;;;;;4984237;28;20953;-82
2024/01/19 11:46:47;;;;;;;30.60;15.47;;;2.50;73.30;;;;;;5003903;28;20268;-79
2024/01/19 11:49:46;;;;;;;32.53;15.87;;;2.40;72.60;;;;;;4993838;28;20223;-79
2024/01/19 11:52:42;;;;;;;31.73;15.47;;;2.40;73.10;;;;;;5021878;28;20374;-79
2024/01/19 11:55:38;;;;;;;33.33;15.70;;;2.50;72.00;;;;;;5004441;28;20326;-80
2024/01/19 11:58:42;;;;;;;30.03;15.23;;;2.50;72.40;;;;;;5005473;28;20232;-79
2024/01/19 12:01:13;;;;;;;32.00;16.03;;;2.40;73.20;;;;;;4973398;28;21272;-79
2024/01/19 12:03:45;;;;;;;32.60;16.27;;;2.40;72.90;;;;;;4990936;28;20308;-79
2024/01/19 12:06:16;;;;;;;33.33;16.83;;;2.30;73.70;;;;;;5016434;28;20229;-80
2024/01/19 12:09:00;;;;;;;34.63;16.17;;;2.40;74.60;;;;;;5016746;28;20723;-80
2024/01/19 12:11:31;;;;;;;39.90;16.17;;;2.20;73.40;;;;;;5011809;28;20316;-80
2024/01/19 12:14:03;;;;;;;36.27;16.57;;;2.30;74.10;;;;;;5015962;28;20228;-79
2024/01/19 12:16:36;;;;;;;31.63;17.33;;;2.30;74.20;;;;;;5016022;28;20702;-80
2024/01/19 12:19:09;;;;;;;37.63;17.77;;;2.40;74.70;;;;;;5014477;28;21053;-80
2024/01/19 12:21:42;;;;;;;34.03;17.40;;;2.40;74.30;;;;;;5007900;28;20380;-80
2024/01/19 12:24:20;;;;;;;34.83;17.30;;;2.40;75.00;;;;;;5009826;28;20248;-81
2024/01/19 12:27:00;;;;;;;37.17;18.50;;;2.40;73.80;;;;;;5019159;28;20251;-81
2024/01/19 12:29:36;;;;;;;31.63;17.37;;;2.40;75.50;;;;;;5032554;28;20232;-80
2024/01/19 12:32:15;;;;;;;37.67;17.90;;;2.40;75.00;;;;;;5001761;28;20299;-80
2024/01/19 12:34:58;;;;;;;31.73;18.10;;;2.30;75.20;;;;;;5008895;28;20229;-80
2024/01/19 12:37:35;;;;;;;36.50;19.50;;;2.20;75.50;;;;;;5011812;28;20943;-81
2024/01/19 12:40:16;;;;;;;33.47;18.17;;;2.20;75.70;;;;;;4999722;28;20312;-81
2024/01/19 12:42:48;;;;;;;36.93;18.27;;;2.40;75.00;;;;;;5023048;28;20266;-81
2024/01/19 12:45:20;;;;;;;42.40;19.50;;;2.40;75.30;;;;;;5028074;28;20250;-82
2024/01/19 12:47:53;;;;;;;43.07;19.40;;;2.40;76.00;;;;;;4996230;28;20256;-82
2024/01/19 12:50:29;;;;;;;33.67;18.20;;;2.30;74.90;;;;;;5003375;28;20234;-81
2024/01/19 12:52:59;;;;;;;39.87;19.40;;;2.30;76.90;;;;;;4998058;28;20317;-81
2024/01/19 12:55:29;;;;;;;41.10;20.27;;;2.40;76.90;;;;;;5018958;28;20235;-81